createdAt,value
2019-01-21T00:01:01.565Z,93.50
2019-01-21T00:03:29.057Z,88.23
2019-01-21T00:05:56.636Z,86.03
2019-01-21T00:08:24.104Z,79.90
2019-01-21T00:10:51.676Z,73.70
2019-01-21T00:13:19.073Z,77.70
2019-01-21T00:15:46.761Z,74.93
2019-01-21T00:18:14.226Z,81.03
2019-01-21T00:20:41.669Z,80.13
2019-01-21T00:23:09.136Z,79.90
2019-01-21T00:25:36.652Z,94.97
2019-01-21T00:28:04.278Z,99.47
2019-01-21T00:30:31.762Z,91.33
2019-01-21T00:32:59.227Z,86.50
2019-01-21T00:35:26.706Z,92.87
2019-01-21T00:37:54.212Z,94.40
2019-01-21T00:40:22.248Z,95.83
2019-01-21T00:42:49.731Z,97.50
2019-01-21T00:45:17.300Z,94.83
2019-01-21T00:47:44.709Z,101.63
2019-01-21T00:50:12.493Z,102.93
2019-01-21T00:52:40.084Z,96.37
2019-01-21T00:55:08.246Z,94.30
2019-01-21T00:57:35.752Z,108.20
2019-01-21T01:00:05.987Z,92.77
2019-01-21T01:02:33.597Z,96.77
2019-01-21T01:05:01.198Z,91.57
2019-01-21T01:07:28.683Z,79.63
2019-01-21T01:09:56.156Z,102.30
2019-01-21T01:12:23.623Z,91.20
2019-01-21T01:14:51.061Z,88.57
2019-01-21T01:17:18.678Z,95.73
2019-01-21T01:19:46.182Z,93.03
2019-01-21T01:22:13.660Z,95.30
2019-01-21T01:24:41.145Z,100.00
2019-01-21T01:27:08.808Z,99.53
2019-01-21T01:29:36.218Z,89.40
2019-01-21T01:32:03.862Z,92.93
2019-01-21T01:34:31.378Z,104.07
2019-01-21T01:36:58.868Z,94.87
2019-01-21T01:39:26.768Z,93.23
2019-01-21T01:41:54.267Z,97.23
2019-01-21T01:44:21.870Z,100.50
2019-01-21T01:46:49.598Z,102.97
2019-01-21T01:49:17.193Z,91.93
2019-01-21T01:51:44.803Z,104.60
2019-01-21T01:54:12.419Z,96.57
2019-01-21T01:56:39.998Z,114.60
2019-01-21T01:59:08.203Z,111.57
2019-01-21T02:01:35.687Z,106.57
2019-01-21T02:04:03.553Z,103.73
2019-01-21T02:06:31.014Z,120.80
2019-01-21T02:08:58.601Z,115.17
2019-01-21T02:11:26.115Z,106.90
2019-01-21T02:13:54.021Z,116.10
2019-01-21T02:16:21.498Z,108.00
2019-01-21T02:18:49.119Z,106.50
2019-01-21T02:21:17.309Z,91.90
2019-01-21T02:23:49.222Z,91.63
2019-01-21T02:26:21.142Z,87.70
2019-01-21T02:29:05.096Z,82.70
2019-01-21T02:32:15.886Z,96.07
2019-01-21T02:34:57.866Z,87.23
2019-01-21T02:37:48.318Z,87.63
2019-01-21T02:40:58.232Z,88.53
2019-01-21T02:44:00.861Z,94.50
2019-01-21T02:46:42.061Z,97.23
2019-01-21T02:49:57.462Z,95.57
2019-01-21T02:53:19.175Z,89.40
2019-01-21T02:56:31.476Z,90.70
2019-01-21T02:59:47.479Z,80.50
2019-01-21T03:02:57.477Z,69.90
2019-01-21T03:06:02.106Z,80.13
2019-01-21T03:09:02.743Z,73.37
2019-01-21T03:11:48.453Z,77.93
2019-01-21T03:14:40.667Z,74.30
2019-01-21T03:17:59.135Z,69.23
2019-01-21T03:21:05.192Z,67.33
2019-01-21T03:24:32.876Z,69.43
2019-01-21T03:27:40.034Z,72.77
2019-01-21T03:30:31.496Z,64.03
2019-01-21T03:33:37.740Z,73.20
2019-01-21T03:36:27.210Z,77.80
2019-01-21T03:40:03.602Z,74.20
2019-01-21T03:43:18.817Z,69.17
2019-01-21T03:46:10.757Z,71.67
2019-01-21T03:49:10.723Z,68.03
2019-01-21T03:52:16.759Z,74.87
2019-01-21T03:54:51.971Z,78.00
2019-01-21T03:57:41.584Z,83.43
2019-01-21T04:00:40.846Z,69.73
2019-01-21T04:03:55.207Z,74.23
2019-01-21T04:06:34.240Z,71.47
2019-01-21T04:09:28.471Z,72.77
2019-01-21T04:12:55.593Z,62.80
2019-01-21T04:16:10.783Z,68.80
2019-01-21T04:19:20.146Z,67.10
2019-01-21T04:22:02.436Z,71.57
2019-01-21T04:25:14.654Z,69.53
2019-01-21T04:28:22.171Z,67.47
2019-01-21T04:32:01.788Z,73.20
2019-01-21T04:35:15.852Z,71.80
2019-01-21T04:38:46.269Z,80.60
2019-01-21T04:41:30.648Z,83.00
2019-01-21T04:44:52.663Z,86.07
2019-01-21T04:47:51.321Z,67.97
2019-01-21T04:51:06.585Z,69.53
2019-01-21T04:54:31.346Z,74.27
2019-01-21T04:57:29.625Z,61.87
2019-01-21T05:00:21.254Z,67.40
2019-01-21T05:03:22.074Z,74.23
2019-01-21T05:06:46.553Z,80.03
2019-01-21T05:10:08.187Z,68.57
2019-01-21T05:13:12.711Z,66.47
2019-01-21T05:16:08.420Z,65.70
2019-01-21T05:19:11.308Z,52.53
2019-01-21T05:22:09.549Z,56.20
2019-01-21T05:25:02.061Z,58.17
2019-01-21T05:28:10.715Z,56.93
2019-01-21T05:31:19.810Z,48.60
2019-01-21T05:34:39.978Z,53.70
2019-01-21T05:37:39.966Z,57.03
2019-01-21T05:40:42.924Z,48.80
2019-01-21T05:43:44.444Z,53.80
2019-01-21T05:46:46.118Z,51.30
2019-01-21T05:49:57.625Z,48.97
2019-01-21T05:53:18.157Z,45.20
2019-01-21T05:56:25.423Z,41.40
2019-01-21T05:59:39.204Z,47.90
2019-01-21T06:02:44.288Z,47.40
2019-01-21T06:05:30.013Z,44.13
2019-01-21T06:08:50.855Z,54.77
2019-01-21T06:12:03.221Z,57.27
2019-01-21T06:15:15.603Z,68.23
2019-01-21T06:18:14.434Z,88.73
2019-01-21T06:21:35.555Z,96.27
2019-01-21T06:24:29.113Z,88.50
2019-01-21T06:27:38.394Z,93.43
2019-01-21T06:30:42.346Z,74.40
2019-01-21T06:33:53.301Z,70.80
2019-01-21T06:36:30.640Z,70.93
2019-01-21T06:39:51.598Z,58.40
2019-01-21T06:43:21.977Z,58.23
2019-01-21T06:46:55.237Z,52.40
2019-01-21T06:49:49.405Z,55.77
2019-01-21T06:52:58.056Z,48.97
2019-01-21T06:56:02.389Z,48.40
2019-01-21T06:59:10.085Z,43.30
2019-01-21T07:01:59.855Z,42.10
2019-01-21T07:04:57.300Z,38.27
2019-01-21T07:07:51.154Z,24.80
2019-01-21T07:11:12.381Z,34.07
2019-01-21T07:14:05.411Z,34.20
2019-01-21T07:17:27.960Z,31.43
2019-01-21T07:20:33.135Z,35.27
2019-01-21T07:23:23.835Z,32.07
2019-01-21T07:26:47.347Z,35.13
2019-01-21T07:29:58.006Z,36.00
2019-01-21T07:32:59.998Z,36.43
2019-01-21T07:36:06.905Z,35.50
2019-01-21T07:39:01.047Z,35.07
2019-01-21T07:42:22.835Z,37.63
2019-01-21T07:45:27.224Z,24.83
2019-01-21T07:48:37.232Z,29.50
2019-01-21T07:51:55.357Z,29.90
2019-01-21T07:55:07.448Z,23.43
2019-01-21T07:58:22.628Z,33.63
2019-01-21T08:01:14.530Z,33.77
2019-01-21T08:04:41.858Z,31.87
2019-01-21T08:07:33.144Z,33.03
2019-01-21T08:10:46.609Z,36.80
2019-01-21T08:14:04.504Z,31.63
2019-01-21T08:17:01.849Z,33.47
2019-01-21T08:19:53.769Z,36.23
2019-01-21T08:22:55.673Z,29.03
2019-01-21T08:26:04.795Z,27.50
2019-01-21T08:29:13.709Z,27.30
2019-01-21T08:32:30.651Z,28.43
2019-01-21T08:35:30.467Z,25.90
2019-01-21T08:38:25.417Z,24.60
2019-01-21T08:41:40.984Z,27.80
2019-01-21T08:45:02.735Z,27.53
2019-01-21T08:48:07.957Z,27.37
2019-01-21T08:51:16.222Z,25.27
2019-01-21T08:54:17.154Z,33.97
2019-01-21T08:57:22.586Z,34.93
2019-01-21T09:00:23.037Z,35.40
2019-01-21T09:03:15.219Z,32.37
2019-01-21T09:06:14.177Z,33.03
2019-01-21T09:09:27.821Z,24.83
2019-01-21T09:12:21.947Z,27.23
2019-01-21T09:15:18.885Z,31.40
2019-01-21T09:18:13.656Z,27.00
2019-01-21T09:21:25.809Z,28.27
2019-01-21T09:24:44.050Z,26.03
2019-01-21T09:27:52.653Z,26.30
2019-01-21T09:30:55.359Z,21.20
2019-01-21T09:34:03.356Z,24.27
2019-01-21T09:37:01.470Z,25.13
2019-01-21T09:40:22.112Z,32.70
2019-01-21T09:43:42.600Z,36.60
2019-01-21T09:46:38.529Z,34.27
2019-01-21T09:49:04.975Z,27.67
2019-01-21T09:51:33.295Z,33.03
2019-01-21T09:54:04.481Z,35.73
2019-01-21T09:56:32.306Z,31.67
2019-01-21T09:59:00.100Z,37.47
2019-01-21T10:01:28.596Z,34.17
2019-01-21T10:03:56.888Z,33.10
2019-01-21T10:06:34.573Z,29.07
2019-01-21T10:09:39.785Z,26.50
2019-01-21T10:12:36.421Z,30.10
2019-01-21T10:15:25.223Z,29.03
2019-01-21T10:18:45.868Z,30.37
2019-01-21T10:21:41.528Z,25.93
2019-01-21T10:24:20.949Z,31.87
2019-01-21T10:27:45.208Z,27.10
2019-01-21T10:30:23.447Z,25.60
2019-01-21T10:33:35.609Z,25.20
2019-01-21T10:36:28.856Z,29.67
2019-01-21T10:39:43.240Z,31.07
2019-01-21T10:42:36.514Z,27.63
2019-01-21T10:45:23.190Z,49.17
2019-01-21T10:48:22.773Z,42.30
2019-01-21T10:51:13.775Z,61.93
2019-01-21T10:54:24.683Z,28.40
2019-01-21T10:57:12.156Z,28.50
2019-01-21T11:00:42.753Z,25.33
2019-01-21T11:03:32.734Z,19.40
2019-01-21T11:06:38.009Z,28.00
2019-01-21T11:09:39.481Z,31.07
2019-01-21T11:12:57.402Z,26.50
2019-01-21T11:15:30.357Z,26.47
2019-01-21T11:18:06.613Z,31.80
2019-01-21T11:21:06.792Z,22.60
2019-01-21T11:23:55.987Z,26.70
2019-01-21T11:26:41.958Z,37.33
2019-01-21T11:30:05.348Z,31.77
2019-01-21T11:33:16.372Z,24.10
2019-01-21T11:36:28.583Z,27.97
2019-01-21T11:39:36.071Z,23.63
2019-01-21T11:42:36.210Z,21.83
2019-01-21T11:45:48.704Z,19.97
2019-01-21T11:49:02.456Z,20.87
2019-01-21T11:51:55.995Z,20.03
2019-01-21T11:55:14.744Z,21.27
2019-01-21T11:58:14.140Z,25.93
2019-01-21T12:01:23.981Z,26.80
2019-01-21T12:04:16.268Z,24.67
2019-01-21T12:07:09.424Z,44.97
2019-01-21T12:10:24.358Z,25.30
2019-01-21T12:13:15.320Z,25.97
2019-01-21T12:16:19.906Z,23.63
2019-01-21T12:19:11.214Z,22.37
2019-01-21T12:22:29.064Z,24.03
2019-01-21T12:25:15.920Z,24.40
2019-01-21T12:28:12.071Z,24.30
2019-01-21T12:30:54.515Z,34.87
2019-01-21T12:33:58.680Z,23.30
2019-01-21T12:36:54.898Z,20.00
2019-01-21T12:40:00.086Z,26.87
2019-01-21T12:42:43.975Z,26.07
2019-01-21T12:45:41.710Z,24.90
2019-01-21T12:48:59.136Z,27.27
2019-01-21T12:52:08.009Z,22.63
2019-01-21T12:55:25.422Z,28.87
2019-01-21T12:58:40.513Z,29.10
2019-01-21T13:02:04.041Z,25.67
2019-01-21T13:05:12.654Z,29.43
2019-01-21T13:08:22.552Z,29.20
2019-01-21T13:11:10.566Z,30.13
2019-01-21T13:14:22.824Z,31.30
2019-01-21T13:17:45.916Z,27.33
2019-01-21T13:20:42.465Z,28.03
2019-01-21T13:23:37.262Z,28.73
2019-01-21T13:26:41.036Z,30.00
2019-01-21T13:29:34.941Z,31.80
2019-01-21T13:32:31.323Z,29.67
2019-01-21T13:35:24.277Z,29.93
2019-01-21T13:38:29.425Z,32.43
2019-01-21T13:41:47.795Z,31.50
2019-01-21T13:44:35.734Z,30.17
2019-01-21T13:47:44.161Z,33.50
2019-01-21T13:50:37.279Z,30.37
2019-01-21T13:53:55.235Z,31.47
2019-01-21T13:56:56.854Z,33.75
2019-01-21T14:00:14.732Z,33.60
2019-01-21T14:03:03.368Z,39.23
2019-01-21T14:06:02.483Z,41.33
2019-01-21T14:09:23.415Z,42.43
2019-01-21T14:12:19.983Z,34.93
2019-01-21T14:15:27.714Z,35.53
2019-01-21T14:18:32.497Z,39.77
2019-01-21T14:21:24.518Z,33.20
2019-01-21T14:24:17.547Z,40.57
2019-01-21T14:27:02.237Z,36.33
2019-01-21T14:29:44.806Z,35.20
2019-01-21T14:32:52.987Z,40.70
2019-01-21T14:35:36.519Z,36.27
2019-01-21T14:38:47.196Z,34.33
2019-01-21T14:41:40.368Z,34.47
2019-01-21T14:44:50.904Z,39.67
2019-01-21T14:48:09.174Z,39.20
2019-01-21T14:51:04.333Z,37.13
2019-01-21T14:54:10.802Z,35.20
2019-01-21T14:56:50.979Z,38.13
2019-01-21T14:59:46.431Z,35.13
2019-01-21T15:03:01.615Z,39.57
2019-01-21T15:06:29.136Z,39.03
2019-01-21T15:09:05.964Z,42.43
2019-01-21T15:12:33.300Z,41.07
2019-01-21T15:15:27.571Z,42.53
2019-01-21T15:18:48.447Z,42.60
2019-01-21T15:21:48.805Z,47.37
2019-01-21T15:24:42.924Z,41.57
2019-01-21T15:27:49.811Z,46.83
2019-01-21T15:30:43.382Z,50.13
2019-01-21T15:33:35.343Z,45.17
2019-01-21T15:36:36.573Z,53.73
2019-01-21T15:39:37.673Z,44.00
2019-01-21T15:42:42.365Z,51.80
2019-01-21T15:45:50.759Z,49.13
2019-01-21T15:48:31.372Z,54.67
2019-01-21T15:51:31.912Z,56.77
2019-01-21T15:54:16.215Z,57.87
2019-01-21T15:57:30.092Z,58.20
2019-01-21T16:00:45.094Z,56.70
2019-01-21T16:03:43.240Z,56.13
2019-01-21T16:06:41.948Z,49.67
2019-01-21T16:09:46.805Z,50.20
2019-01-21T16:12:45.963Z,55.40
2019-01-21T16:15:38.321Z,55.83
2019-01-21T16:18:25.958Z,52.40
2019-01-21T16:21:37.296Z,48.53
2019-01-21T16:24:26.116Z,46.73
2019-01-21T16:27:03.577Z,49.77
2019-01-21T16:29:39.251Z,48.47
2019-01-21T16:32:40.700Z,55.83
2019-01-21T16:35:34.332Z,56.60
2019-01-21T16:38:23.067Z,55.97
2019-01-21T16:41:24.862Z,50.97
2019-01-21T16:43:52.934Z,49.93
2019-01-21T16:46:20.719Z,50.47
2019-01-21T16:48:48.210Z,61.93
2019-01-21T16:51:20.153Z,69.43
2019-01-21T16:53:45.428Z,59.17
2019-01-21T16:56:13.132Z,59.70
2019-01-21T16:58:40.943Z,54.37
2019-01-21T17:01:08.670Z,59.77
2019-01-21T17:03:36.324Z,52.53
2019-01-21T17:06:04.327Z,54.63
2019-01-21T17:08:31.877Z,58.53
2019-01-21T17:10:59.317Z,59.20
2019-01-21T17:13:26.925Z,61.33
2019-01-21T17:15:54.738Z,59.90
2019-01-21T17:18:22.474Z,61.00
2019-01-21T17:20:50.322Z,63.77
2019-01-21T17:23:18.428Z,59.67
2019-01-21T17:25:46.165Z,58.30
2019-01-21T17:28:14.084Z,58.43
2019-01-21T17:30:41.765Z,66.83
2019-01-21T17:33:09.521Z,67.77
2019-01-21T17:35:37.297Z,62.43
2019-01-21T17:38:05.024Z,64.10
2019-01-21T17:40:32.858Z,63.57
2019-01-21T17:43:00.599Z,64.10
2019-01-21T17:45:28.163Z,72.33
2019-01-21T17:47:55.904Z,71.33
2019-01-21T17:50:23.602Z,63.63
2019-01-21T17:52:51.223Z,64.40
2019-01-21T17:55:18.953Z,57.87
2019-01-21T17:57:46.678Z,72.17
2019-01-21T18:00:19.939Z,58.33
2019-01-21T18:02:47.839Z,58.00
2019-01-21T18:05:16.520Z,51.20
2019-01-21T18:07:44.400Z,58.70
2019-01-21T18:10:13.770Z,52.67
2019-01-21T18:12:42.144Z,50.30
2019-01-21T18:15:10.740Z,55.17
2019-01-21T18:17:38.459Z,57.17
2019-01-21T18:20:13.323Z,54.83
2019-01-21T18:22:40.972Z,48.33
2019-01-21T18:25:09.717Z,51.60
2019-01-21T18:27:37.243Z,49.50
2019-01-21T18:30:08.246Z,51.73
2019-01-21T18:32:35.902Z,43.07
2019-01-21T18:35:04.589Z,43.13
2019-01-21T18:37:32.079Z,54.60
2019-01-21T18:39:59.888Z,53.03
2019-01-21T18:42:27.717Z,51.30
2019-01-21T18:44:55.663Z,48.20
2019-01-21T18:47:23.330Z,41.57
2019-01-21T18:49:51.067Z,51.90
2019-01-21T18:52:18.858Z,59.83
2019-01-21T18:54:46.451Z,55.53
2019-01-21T18:57:15.281Z,57.10
2019-01-21T18:59:43.134Z,57.30
2019-01-21T19:02:10.552Z,58.03
2019-01-21T19:04:38.259Z,55.80
2019-01-21T19:07:05.959Z,54.70
2019-01-21T19:09:33.610Z,53.87
2019-01-21T19:12:01.169Z,60.13
2019-01-21T19:14:29.101Z,55.37
2019-01-21T19:16:56.625Z,51.77
2019-01-21T19:19:24.426Z,53.57
2019-01-21T19:21:53.703Z,52.00
2019-01-21T19:24:21.495Z,45.47
2019-01-21T19:26:49.529Z,50.00
2019-01-21T19:29:17.358Z,49.43
2019-01-21T19:31:45.050Z,49.20
2019-01-21T19:34:12.745Z,49.77
2019-01-21T19:36:40.389Z,52.47
2019-01-21T19:39:08.965Z,59.60
2019-01-21T19:41:36.725Z,49.90
2019-01-21T19:44:04.800Z,60.87
2019-01-21T19:46:32.465Z,64.40
2019-01-21T19:49:00.282Z,57.70
2019-01-21T19:51:28.162Z,52.80
2019-01-21T19:53:55.744Z,49.90
2019-01-21T19:56:23.646Z,55.73
2019-01-21T19:58:51.642Z,60.47
2019-01-21T20:01:19.444Z,53.53
2019-01-21T20:03:47.071Z,48.73
2019-01-21T20:06:15.326Z,41.13
2019-01-21T20:09:00.588Z,43.30
2019-01-21T20:11:34.812Z,44.43
2019-01-21T20:14:06.103Z,47.27
2019-01-21T20:16:38.275Z,52.80
2019-01-21T20:19:06.406Z,48.63
2019-01-21T20:21:37.380Z,49.10
2019-01-21T20:24:05.892Z,46.47
2019-01-21T20:26:33.474Z,48.00
2019-01-21T20:29:00.954Z,48.47
2019-01-21T20:31:28.598Z,46.43
2019-01-21T20:33:56.120Z,52.77
2019-01-21T20:36:23.782Z,52.30
2019-01-21T20:38:51.393Z,52.87
2019-01-21T20:41:18.967Z,59.57
2019-01-21T20:43:46.612Z,62.50
2019-01-21T20:46:14.406Z,60.33
2019-01-21T20:48:42.163Z,61.90
2019-01-21T20:51:09.985Z,62.43
2019-01-21T20:53:37.508Z,60.53
2019-01-21T20:56:05.168Z,61.27
2019-01-21T20:58:32.835Z,60.27
2019-01-21T21:01:00.614Z,57.67
2019-01-21T21:03:28.132Z,55.93
2019-01-21T21:05:55.692Z,55.63
2019-01-21T21:08:23.256Z,52.17
2019-01-21T21:10:50.601Z,47.97
2019-01-21T21:13:18.056Z,51.05
2019-01-21T21:15:45.603Z,47.47
2019-01-21T21:18:13.006Z,42.30
2019-01-21T21:20:53.550Z,48.60
2019-01-21T21:23:20.987Z,46.40
2019-01-21T21:25:48.482Z,50.37
2019-01-21T21:28:15.881Z,56.37
2019-01-21T21:30:43.393Z,52.23
2019-01-21T21:33:11.545Z,53.00
2019-01-21T21:35:39.086Z,46.27
2019-01-21T21:38:06.515Z,54.43
2019-01-21T21:40:34.003Z,57.40
2019-01-21T21:43:01.427Z,53.77
2019-01-21T21:45:28.947Z,54.93
2019-01-21T21:48:00.832Z,54.87
2019-01-21T21:50:28.403Z,55.63
2019-01-21T21:52:55.855Z,52.77
2019-01-21T21:55:23.414Z,57.17
2019-01-21T21:57:51.060Z,61.90
2019-01-21T22:00:21.195Z,56.73
2019-01-21T22:02:48.814Z,54.07
2019-01-21T22:05:17.300Z,54.40
2019-01-21T22:07:45.105Z,55.37
2019-01-21T22:10:14.319Z,61.57
2019-01-21T22:12:41.891Z,58.83
2019-01-21T22:15:12.133Z,56.53
2019-01-21T22:17:39.765Z,52.93
2019-01-21T22:20:10.016Z,61.80
2019-01-21T22:22:37.434Z,62.17
2019-01-21T22:25:05.554Z,63.00
2019-01-21T22:27:33.535Z,54.40
2019-01-21T22:30:00.974Z,59.10
2019-01-21T22:32:28.464Z,57.00
2019-01-21T22:34:56.045Z,57.63
2019-01-21T22:37:23.566Z,58.57
2019-01-21T22:39:51.312Z,63.03
2019-01-21T22:42:18.997Z,58.20
2019-01-21T22:44:46.488Z,53.87
2019-01-21T22:47:13.984Z,53.87
2019-01-21T22:49:41.620Z,44.83
2019-01-21T22:52:09.082Z,49.83
2019-01-21T22:54:36.787Z,53.53
2019-01-21T22:57:04.757Z,49.27
2019-01-21T22:59:32.403Z,42.10
2019-01-21T23:02:00.124Z,38.43
2019-01-21T23:04:27.911Z,41.67
2019-01-21T23:06:55.390Z,37.10
2019-01-21T23:09:22.962Z,41.40
2019-01-21T23:11:50.522Z,36.93
2019-01-21T23:14:18.148Z,38.63
2019-01-21T23:16:45.638Z,39.53
2019-01-21T23:19:13.115Z,33.33
2019-01-21T23:21:40.612Z,38.50
2019-01-21T23:24:08.109Z,35.30
2019-01-21T23:26:35.603Z,33.40
2019-01-21T23:29:03.421Z,37.70
2019-01-21T23:31:30.862Z,31.80
2019-01-21T23:33:58.421Z,33.73
2019-01-21T23:36:25.869Z,33.33
2019-01-21T23:38:53.317Z,33.40
2019-01-21T23:41:20.801Z,31.87
2019-01-21T23:43:48.281Z,35.47
2019-01-21T23:46:16.044Z,34.37
2019-01-21T23:48:43.539Z,37.20
2019-01-21T23:51:11.002Z,36.03
2019-01-21T23:53:38.513Z,39.90
2019-01-21T23:56:06.295Z,28.47
2019-01-21T23:58:33.837Z,30.43
